sensor_id;sensor_type;location;lat;lon;timestamp;P1;durP1;ratioP1;P2;durP2;ratioP2
20731;SDS011;10527;52.124;5.196;2022-12-10T00:01:35;41.20;;;23.10;;
20731;SDS011;10527;52.124;5.196;2022-12-10T00:04:03;39.20;;;22.17;;
20731;SDS011;10527;52.124;5.196;2022-12-10T00:06:32;37.57;;;22.23;;
20731;SDS011;10527;52.124;5.196;2022-12-10T00:09:02;39.03;;;21.43;;
20731;SDS011;10527;52.124;5.196;2022-12-10T00:11:34;37.83;;;21.10;;
20731;SDS011;10527;52.124;5.196;2022-12-10T00:14:01;38.37;;;21.30;;
20731;SDS011;10527;52.124;5.196;2022-12-10T00:16:28;36.47;;;21.07;;
20731;SDS011;10527;52.124;5.196;2022-12-10T00:18:56;33.30;;;19.73;;
20731;SDS011;10527;52.124;5.196;2022-12-10T00:21:25;39.00;;;22.37;;
20731;SDS011;10527;52.124;5.196;2022-12-10T00:23:56;43.87;;;23.73;;
20731;SDS011;10527;52.124;5.196;2022-12-10T00:26:24;39.63;;;22.63;;
20731;SDS011;10527;52.124;5.196;2022-12-10T00:28:57;37.97;;;22.83;;
20731;SDS011;10527;52.124;5.196;2022-12-10T00:31:28;39.80;;;22.30;;
20731;SDS011;10527;52.124;5.196;2022-12-10T00:33:59;45.17;;;24.00;;
20731;SDS011;10527;52.124;5.196;2022-12-10T00:36:31;41.83;;;23.00;;
20731;SDS011;10527;52.124;5.196;2022-12-10T00:39:03;40.50;;;22.40;;
20731;SDS011;10527;52.124;5.196;2022-12-10T00:41:31;38.27;;;22.03;;
20731;SDS011;10527;52.124;5.196;2022-12-10T00:43:58;44.23;;;23.60;;
20731;SDS011;10527;52.124;5.196;2022-12-10T00:46:26;40.77;;;21.13;;
20731;SDS011;10527;52.124;5.196;2022-12-10T00:48:54;40.57;;;21.70;;
20731;SDS011;10527;52.124;5.196;2022-12-10T00:51:22;41.07;;;22.70;;
20731;SDS011;10527;52.124;5.196;2022-12-10T00:53:52;41.00;;;21.80;;
20731;SDS011;10527;52.124;5.196;2022-12-10T00:56:23;43.40;;;22.90;;
20731;SDS011;10527;52.124;5.196;2022-12-10T00:58:56;40.37;;;22.30;;
20731;SDS011;10527;52.124;5.196;2022-12-10T01:01:33;43.77;;;22.87;;
20731;SDS011;10527;52.124;5.196;2022-12-10T01:04:05;42.93;;;23.77;;
20731;SDS011;10527;52.124;5.196;2022-12-10T01:06:47;45.23;;;24.50;;
20731;SDS011;10527;52.124;5.196;2022-12-10T01:09:22;46.43;;;24.33;;
20731;SDS011;10527;52.124;5.196;2022-12-10T01:11:52;47.90;;;23.80;;
20731;SDS011;10527;52.124;5.196;2022-12-10T01:14:22;48.27;;;24.97;;
20731;SDS011;10527;52.124;5.196;2022-12-10T01:16:53;43.77;;;22.53;;
20731;SDS011;10527;52.124;5.196;2022-12-10T01:19:23;45.73;;;23.10;;
20731;SDS011;10527;52.124;5.196;2022-12-10T01:21:50;45.40;;;23.03;;
20731;SDS011;10527;52.124;5.196;2022-12-10T01:24:20;47.73;;;24.90;;
20731;SDS011;10527;52.124;5.196;2022-12-10T01:26:50;51.27;;;24.70;;
20731;SDS011;10527;52.124;5.196;2022-12-10T01:29:17;48.47;;;24.27;;
20731;SDS011;10527;52.124;5.196;2022-12-10T01:31:44;45.93;;;23.93;;
20731;SDS011;10527;52.124;5.196;2022-12-10T01:34:14;44.27;;;22.17;;
20731;SDS011;10527;52.124;5.196;2022-12-10T01:36:42;47.30;;;23.40;;
20731;SDS011;10527;52.124;5.196;2022-12-10T01:39:13;48.47;;;22.87;;
20731;SDS011;10527;52.124;5.196;2022-12-10T01:41:43;47.90;;;24.23;;
20731;SDS011;10527;52.124;5.196;2022-12-10T01:46:53;56.50;;;24.50;;
20731;SDS011;10527;52.124;5.196;2022-12-10T01:49:46;63.17;;;24.30;;
20731;SDS011;10527;52.124;5.196;2022-12-10T01:52:11;52.73;;;23.93;;
20731;SDS011;10527;52.124;5.196;2022-12-10T01:54:40;63.00;;;23.73;;
20731;SDS011;10527;52.124;5.196;2022-12-10T01:59:57;47.30;;;22.93;;
20731;SDS011;10527;52.124;5.196;2022-12-10T02:02:33;59.27;;;22.67;;
20731;SDS011;10527;52.124;5.196;2022-12-10T02:05:32;54.27;;;22.93;;
20731;SDS011;10527;52.124;5.196;2022-12-10T02:11:13;53.03;;;24.30;;
20731;SDS011;10527;52.124;5.196;2022-12-10T02:14:04;55.17;;;22.70;;
20731;SDS011;10527;52.124;5.196;2022-12-10T02:17:05;48.77;;;21.87;;
20731;SDS011;10527;52.124;5.196;2022-12-10T02:22:23;64.50;;;21.73;;
20731;SDS011;10527;52.124;5.196;2022-12-10T02:24:56;61.73;;;23.63;;
20731;SDS011;10527;52.124;5.196;2022-12-10T02:27:37;56.60;;;21.20;;
20731;SDS011;10527;52.124;5.196;2022-12-10T02:30:18;63.03;;;22.43;;
20731;SDS011;10527;52.124;5.196;2022-12-10T02:32:46;59.77;;;23.50;;
20731;SDS011;10527;52.124;5.196;2022-12-10T02:35:21;69.30;;;23.80;;
20731;SDS011;10527;52.124;5.196;2022-12-10T02:37:55;47.13;;;21.00;;
20731;SDS011;10527;52.124;5.196;2022-12-10T02:40:31;59.70;;;22.43;;
20731;SDS011;10527;52.124;5.196;2022-12-10T02:43:02;73.23;;;25.07;;
20731;SDS011;10527;52.124;5.196;2022-12-10T02:45:30;63.90;;;22.57;;
20731;SDS011;10527;52.124;5.196;2022-12-10T02:48:00;54.27;;;21.13;;
20731;SDS011;10527;52.124;5.196;2022-12-10T02:50:29;47.40;;;21.27;;
20731;SDS011;10527;52.124;5.196;2022-12-10T02:52:57;58.03;;;22.67;;
20731;SDS011;10527;52.124;5.196;2022-12-10T02:55:24;49.47;;;22.10;;
20731;SDS011;10527;52.124;5.196;2022-12-10T02:58:07;80.43;;;25.20;;
20731;SDS011;10527;52.124;5.196;2022-12-10T03:00:58;59.20;;;21.07;;
20731;SDS011;10527;52.124;5.196;2022-12-10T03:03:42;82.77;;;24.03;;
20731;SDS011;10527;52.124;5.196;2022-12-10T03:09:37;56.73;;;23.20;;
20731;SDS011;10527;52.124;5.196;2022-12-10T03:11:51;81.67;;;23.47;;
20731;SDS011;10527;52.124;5.196;2022-12-10T03:14:45;52.80;;;21.17;;
20731;SDS011;10527;52.124;5.196;2022-12-10T03:17:14;69.27;;;22.43;;
20731;SDS011;10527;52.124;5.196;2022-12-10T03:19:44;73.67;;;22.47;;
20731;SDS011;10527;52.124;5.196;2022-12-10T03:22:16;76.20;;;22.83;;
20731;SDS011;10527;52.124;5.196;2022-12-10T03:24:48;79.90;;;24.30;;
20731;SDS011;10527;52.124;5.196;2022-12-10T03:27:15;81.50;;;24.33;;
20731;SDS011;10527;52.124;5.196;2022-12-10T03:29:52;113.90;;;28.17;;
20731;SDS011;10527;52.124;5.196;2022-12-10T03:32:23;107.67;;;24.07;;
20731;SDS011;10527;52.124;5.196;2022-12-10T03:34:54;78.73;;;24.30;;
20731;SDS011;10527;52.124;5.196;2022-12-10T03:37:27;120.70;;;27.97;;
20731;SDS011;10527;52.124;5.196;2022-12-10T03:39:56;81.57;;;25.37;;
20731;SDS011;10527;52.124;5.196;2022-12-10T03:42:24;62.57;;;23.27;;
20731;SDS011;10527;52.124;5.196;2022-12-10T03:44:51;113.00;;;26.60;;
20731;SDS011;10527;52.124;5.196;2022-12-10T03:47:18;76.87;;;25.77;;
20731;SDS011;10527;52.124;5.196;2022-12-10T03:49:46;96.40;;;25.73;;
20731;SDS011;10527;52.124;5.196;2022-12-10T03:52:13;89.40;;;24.57;;
20731;SDS011;10527;52.124;5.196;2022-12-10T03:54:40;80.37;;;24.40;;
20731;SDS011;10527;52.124;5.196;2022-12-10T03:57:07;124.50;;;29.40;;
20731;SDS011;10527;52.124;5.196;2022-12-10T03:59:34;129.93;;;29.03;;
20731;SDS011;10527;52.124;5.196;2022-12-10T04:02:00;90.47;;;27.47;;
20731;SDS011;10527;52.124;5.196;2022-12-10T04:04:28;96.93;;;27.03;;
20731;SDS011;10527;52.124;5.196;2022-12-10T04:06:55;92.37;;;26.20;;
20731;SDS011;10527;52.124;5.196;2022-12-10T04:09:22;70.40;;;23.73;;
20731;SDS011;10527;52.124;5.196;2022-12-10T04:11:49;77.57;;;25.60;;
20731;SDS011;10527;52.124;5.196;2022-12-10T04:14:16;108.87;;;27.87;;
20731;SDS011;10527;52.124;5.196;2022-12-10T04:17:01;112.43;;;26.27;;
20731;SDS011;10527;52.124;5.196;2022-12-10T04:19:29;121.60;;;27.57;;
20731;SDS011;10527;52.124;5.196;2022-12-10T04:24:45;96.77;;;26.40;;
20731;SDS011;10527;52.124;5.196;2022-12-10T04:27:32;68.27;;;27.17;;
20731;SDS011;10527;52.124;5.196;2022-12-10T04:30:04;93.03;;;25.73;;
20731;SDS011;10527;52.124;5.196;2022-12-10T04:32:36;89.90;;;27.93;;
20731;SDS011;10527;52.124;5.196;2022-12-10T04:35:03;107.77;;;28.50;;
20731;SDS011;10527;52.124;5.196;2022-12-10T04:37:31;101.67;;;28.00;;
20731;SDS011;10527;52.124;5.196;2022-12-10T04:39:58;83.30;;;23.70;;
20731;SDS011;10527;52.124;5.196;2022-12-10T04:42:25;65.17;;;23.80;;
20731;SDS011;10527;52.124;5.196;2022-12-10T04:47:22;80.83;;;25.13;;
20731;SDS011;10527;52.124;5.196;2022-12-10T04:49:50;58.50;;;22.30;;
20731;SDS011;10527;52.124;5.196;2022-12-10T04:52:18;68.50;;;22.50;;
20731;SDS011;10527;52.124;5.196;2022-12-10T04:54:45;80.13;;;21.97;;
20731;SDS011;10527;52.124;5.196;2022-12-10T04:57:12;71.77;;;22.97;;
20731;SDS011;10527;52.124;5.196;2022-12-10T04:59:40;88.43;;;25.73;;
20731;SDS011;10527;52.124;5.196;2022-12-10T05:02:08;70.43;;;23.20;;
20731;SDS011;10527;52.124;5.196;2022-12-10T05:04:35;78.77;;;23.40;;
20731;SDS011;10527;52.124;5.196;2022-12-10T05:07:02;88.07;;;23.43;;
20731;SDS011;10527;52.124;5.196;2022-12-10T05:09:28;65.80;;;23.57;;
20731;SDS011;10527;52.124;5.196;2022-12-10T05:11:55;59.83;;;23.03;;
20731;SDS011;10527;52.124;5.196;2022-12-10T05:14:22;57.57;;;22.97;;
20731;SDS011;10527;52.124;5.196;2022-12-10T05:16:50;51.03;;;22.30;;
20731;SDS011;10527;52.124;5.196;2022-12-10T05:19:17;69.80;;;22.97;;
20731;SDS011;10527;52.124;5.196;2022-12-10T05:21:49;69.27;;;22.40;;
20731;SDS011;10527;52.124;5.196;2022-12-10T05:24:35;108.80;;;26.73;;
20731;SDS011;10527;52.124;5.196;2022-12-10T05:27:03;73.80;;;24.33;;
20731;SDS011;10527;52.124;5.196;2022-12-10T05:29:31;86.97;;;24.67;;
20731;SDS011;10527;52.124;5.196;2022-12-10T05:31:59;59.23;;;23.30;;
20731;SDS011;10527;52.124;5.196;2022-12-10T05:34:26;81.20;;;23.70;;
20731;SDS011;10527;52.124;5.196;2022-12-10T05:36:53;66.20;;;22.47;;
20731;SDS011;10527;52.124;5.196;2022-12-10T05:39:19;68.53;;;22.30;;
20731;SDS011;10527;52.124;5.196;2022-12-10T05:41:49;64.50;;;21.33;;
20731;SDS011;10527;52.124;5.196;2022-12-10T05:44:16;75.23;;;22.97;;
20731;SDS011;10527;52.124;5.196;2022-12-10T05:46:42;69.43;;;23.57;;
20731;SDS011;10527;52.124;5.196;2022-12-10T05:49:09;78.20;;;22.57;;
20731;SDS011;10527;52.124;5.196;2022-12-10T05:51:37;60.97;;;20.93;;
20731;SDS011;10527;52.124;5.196;2022-12-10T05:54:05;81.10;;;23.00;;
20731;SDS011;10527;52.124;5.196;2022-12-10T05:56:32;69.57;;;21.80;;
20731;SDS011;10527;52.124;5.196;2022-12-10T05:59:01;54.40;;;20.20;;
20731;SDS011;10527;52.124;5.196;2022-12-10T06:01:30;74.83;;;20.67;;
20731;SDS011;10527;52.124;5.196;2022-12-10T06:04:00;50.93;;;19.23;;
20731;SDS011;10527;52.124;5.196;2022-12-10T06:06:30;54.87;;;20.27;;
20731;SDS011;10527;52.124;5.196;2022-12-10T06:09:03;45.70;;;18.50;;
20731;SDS011;10527;52.124;5.196;2022-12-10T06:11:32;63.53;;;20.63;;
20731;SDS011;10527;52.124;5.196;2022-12-10T06:13:59;46.47;;;19.23;;
20731;SDS011;10527;52.124;5.196;2022-12-10T06:16:28;50.73;;;19.67;;
20731;SDS011;10527;52.124;5.196;2022-12-10T06:18:56;37.90;;;20.00;;
20731;SDS011;10527;52.124;5.196;2022-12-10T06:21:24;53.40;;;18.43;;
20731;SDS011;10527;52.124;5.196;2022-12-10T06:23:51;55.10;;;20.63;;
20731;SDS011;10527;52.124;5.196;2022-12-10T06:26:23;51.97;;;18.17;;
20731;SDS011;10527;52.124;5.196;2022-12-10T06:28:52;47.73;;;19.63;;
20731;SDS011;10527;52.124;5.196;2022-12-10T06:31:20;51.53;;;19.97;;
20731;SDS011;10527;52.124;5.196;2022-12-10T06:33:48;59.93;;;20.87;;
20731;SDS011;10527;52.124;5.196;2022-12-10T06:36:17;48.23;;;19.30;;
20731;SDS011;10527;52.124;5.196;2022-12-10T06:38:44;43.77;;;19.30;;
20731;SDS011;10527;52.124;5.196;2022-12-10T06:41:13;49.97;;;19.77;;
20731;SDS011;10527;52.124;5.196;2022-12-10T06:43:43;46.87;;;19.13;;
20731;SDS011;10527;52.124;5.196;2022-12-10T06:46:10;50.83;;;20.80;;
20731;SDS011;10527;52.124;5.196;2022-12-10T06:48:40;62.00;;;21.63;;
20731;SDS011;10527;52.124;5.196;2022-12-10T06:51:10;42.77;;;20.50;;
20731;SDS011;10527;52.124;5.196;2022-12-10T06:53:39;47.43;;;20.43;;
20731;SDS011;10527;52.124;5.196;2022-12-10T06:56:11;41.77;;;19.77;;
20731;SDS011;10527;52.124;5.196;2022-12-10T06:58:47;52.07;;;21.20;;
20731;SDS011;10527;52.124;5.196;2022-12-10T07:01:19;44.60;;;20.90;;
20731;SDS011;10527;52.124;5.196;2022-12-10T07:03:52;47.37;;;20.40;;
20731;SDS011;10527;52.124;5.196;2022-12-10T07:06:23;53.93;;;21.47;;
20731;SDS011;10527;52.124;5.196;2022-12-10T07:08:52;44.57;;;20.37;;
20731;SDS011;10527;52.124;5.196;2022-12-10T07:11:20;64.90;;;21.50;;
20731;SDS011;10527;52.124;5.196;2022-12-10T07:13:51;48.50;;;21.20;;
20731;SDS011;10527;52.124;5.196;2022-12-10T07:16:20;49.40;;;21.67;;
20731;SDS011;10527;52.124;5.196;2022-12-10T07:18:50;63.93;;;20.93;;
20731;SDS011;10527;52.124;5.196;2022-12-10T07:21:30;63.37;;;22.13;;
20731;SDS011;10527;52.124;5.196;2022-12-10T07:24:04;58.50;;;20.43;;
20731;SDS011;10527;52.124;5.196;2022-12-10T07:26:36;44.07;;;20.27;;
20731;SDS011;10527;52.124;5.196;2022-12-10T07:29:06;42.23;;;21.63;;
20731;SDS011;10527;52.124;5.196;2022-12-10T07:31:39;46.37;;;19.73;;
20731;SDS011;10527;52.124;5.196;2022-12-10T07:34:06;49.97;;;20.57;;
20731;SDS011;10527;52.124;5.196;2022-12-10T07:36:35;45.90;;;19.93;;
20731;SDS011;10527;52.124;5.196;2022-12-10T07:39:06;57.80;;;21.03;;
20731;SDS011;10527;52.124;5.196;2022-12-10T07:41:43;81.10;;;22.33;;
20731;SDS011;10527;52.124;5.196;2022-12-10T07:44:25;39.97;;;20.17;;
20731;SDS011;10527;52.124;5.196;2022-12-10T07:46:53;48.07;;;21.13;;
20731;SDS011;10527;52.124;5.196;2022-12-10T07:49:21;53.83;;;20.20;;
20731;SDS011;10527;52.124;5.196;2022-12-10T07:51:49;40.10;;;20.40;;
20731;SDS011;10527;52.124;5.196;2022-12-10T07:54:17;34.97;;;18.80;;
20731;SDS011;10527;52.124;5.196;2022-12-10T07:56:47;42.77;;;19.93;;
20731;SDS011;10527;52.124;5.196;2022-12-10T07:59:13;50.30;;;18.23;;
20731;SDS011;10527;52.124;5.196;2022-12-10T08:01:40;45.67;;;19.37;;
20731;SDS011;10527;52.124;5.196;2022-12-10T08:04:07;35.23;;;17.57;;
20731;SDS011;10527;52.124;5.196;2022-12-10T08:06:34;34.27;;;17.30;;
20731;SDS011;10527;52.124;5.196;2022-12-10T08:09:01;71.07;;;20.50;;
20731;SDS011;10527;52.124;5.196;2022-12-10T08:11:29;44.70;;;19.83;;
20731;SDS011;10527;52.124;5.196;2022-12-10T08:13:56;41.30;;;18.23;;
20731;SDS011;10527;52.124;5.196;2022-12-10T08:16:23;44.33;;;18.97;;
20731;SDS011;10527;52.124;5.196;2022-12-10T08:18:55;40.63;;;18.33;;
20731;SDS011;10527;52.124;5.196;2022-12-10T08:21:25;42.00;;;18.53;;
20731;SDS011;10527;52.124;5.196;2022-12-10T08:23:55;39.80;;;16.90;;
20731;SDS011;10527;52.124;5.196;2022-12-10T08:26:28;38.77;;;17.60;;
20731;SDS011;10527;52.124;5.196;2022-12-10T08:28:58;31.40;;;17.30;;
20731;SDS011;10527;52.124;5.196;2022-12-10T08:31:27;41.77;;;19.73;;
20731;SDS011;10527;52.124;5.196;2022-12-10T08:34:02;43.00;;;19.70;;
20731;SDS011;10527;52.124;5.196;2022-12-10T08:36:30;37.90;;;19.33;;
20731;SDS011;10527;52.124;5.196;2022-12-10T08:39:00;46.00;;;19.97;;
20731;SDS011;10527;52.124;5.196;2022-12-10T08:41:26;55.23;;;21.90;;
20731;SDS011;10527;52.124;5.196;2022-12-10T08:43:53;48.33;;;20.93;;
20731;SDS011;10527;52.124;5.196;2022-12-10T08:46:21;38.83;;;20.23;;
20731;SDS011;10527;52.124;5.196;2022-12-10T08:48:49;38.93;;;19.37;;
20731;SDS011;10527;52.124;5.196;2022-12-10T08:51:16;46.03;;;21.00;;
20731;SDS011;10527;52.124;5.196;2022-12-10T08:53:45;46.33;;;21.40;;
20731;SDS011;10527;52.124;5.196;2022-12-10T08:56:12;44.77;;;20.90;;
20731;SDS011;10527;52.124;5.196;2022-12-10T08:58:39;40.37;;;19.37;;
20731;SDS011;10527;52.124;5.196;2022-12-10T09:01:11;42.23;;;20.47;;
20731;SDS011;10527;52.124;5.196;2022-12-10T09:03:44;47.87;;;20.33;;
20731;SDS011;10527;52.124;5.196;2022-12-10T09:06:12;43.70;;;19.83;;
20731;SDS011;10527;52.124;5.196;2022-12-10T09:08:43;49.60;;;20.47;;
20731;SDS011;10527;52.124;5.196;2022-12-10T09:11:12;42.53;;;20.27;;
20731;SDS011;10527;52.124;5.196;2022-12-10T09:13:45;58.97;;;21.70;;
20731;SDS011;10527;52.124;5.196;2022-12-10T09:16:12;47.30;;;21.60;;
20731;SDS011;10527;52.124;5.196;2022-12-10T09:18:40;46.37;;;20.90;;
20731;SDS011;10527;52.124;5.196;2022-12-10T09:21:07;48.10;;;21.10;;
20731;SDS011;10527;52.124;5.196;2022-12-10T09:23:39;41.77;;;21.23;;
20731;SDS011;10527;52.124;5.196;2022-12-10T09:26:07;45.60;;;20.00;;
20731;SDS011;10527;52.124;5.196;2022-12-10T09:28:37;39.47;;;19.27;;
20731;SDS011;10527;52.124;5.196;2022-12-10T09:31:05;44.83;;;18.90;;
20731;SDS011;10527;52.124;5.196;2022-12-10T09:33:41;44.47;;;19.10;;
20731;SDS011;10527;52.124;5.196;2022-12-10T09:36:09;38.77;;;18.00;;
20731;SDS011;10527;52.124;5.196;2022-12-10T09:38:39;45.30;;;19.80;;
20731;SDS011;10527;52.124;5.196;2022-12-10T09:47:36;43.40;;;20.40;;
20731;SDS011;10527;52.124;5.196;2022-12-10T09:50:19;42.13;;;18.43;;
20731;SDS011;10527;52.124;5.196;2022-12-10T09:53:15;43.53;;;20.23;;
20731;SDS011;10527;52.124;5.196;2022-12-10T09:55:48;36.27;;;19.67;;
20731;SDS011;10527;52.124;5.196;2022-12-10T09:58:17;47.57;;;20.20;;
20731;SDS011;10527;52.124;5.196;2022-12-10T10:00:57;42.27;;;20.63;;
20731;SDS011;10527;52.124;5.196;2022-12-10T10:03:52;41.03;;;18.07;;
20731;SDS011;10527;52.124;5.196;2022-12-10T10:06:29;41.63;;;19.50;;
20731;SDS011;10527;52.124;5.196;2022-12-10T10:08:57;38.57;;;18.50;;
20731;SDS011;10527;52.124;5.196;2022-12-10T10:11:29;38.03;;;18.70;;
20731;SDS011;10527;52.124;5.196;2022-12-10T10:19:21;39.90;;;20.07;;
20731;SDS011;10527;52.124;5.196;2022-12-10T10:21:57;47.60;;;20.60;;
20731;SDS011;10527;52.124;5.196;2022-12-10T10:24:34;43.43;;;19.43;;
20731;SDS011;10527;52.124;5.196;2022-12-10T10:27:15;51.80;;;20.17;;
20731;SDS011;10527;52.124;5.196;2022-12-10T10:29:57;42.03;;;20.80;;
20731;SDS011;10527;52.124;5.196;2022-12-10T10:32:49;49.03;;;19.43;;
20731;SDS011;10527;52.124;5.196;2022-12-10T10:35:25;40.80;;;19.07;;
20731;SDS011;10527;52.124;5.196;2022-12-10T10:38:12;48.20;;;21.10;;
20731;SDS011;10527;52.124;5.196;2022-12-10T10:41:03;51.93;;;21.83;;
20731;SDS011;10527;52.124;5.196;2022-12-10T10:43:42;52.77;;;21.67;;
20731;SDS011;10527;52.124;5.196;2022-12-10T10:46:26;62.80;;;22.93;;
20731;SDS011;10527;52.124;5.196;2022-12-10T10:49:14;45.37;;;22.33;;
20731;SDS011;10527;52.124;5.196;2022-12-10T10:52:05;41.07;;;20.47;;
20731;SDS011;10527;52.124;5.196;2022-12-10T10:54:43;43.63;;;20.80;;
20731;SDS011;10527;52.124;5.196;2022-12-10T10:57:14;43.13;;;19.40;;
20731;SDS011;10527;52.124;5.196;2022-12-10T10:59:56;42.67;;;19.90;;
20731;SDS011;10527;52.124;5.196;2022-12-10T11:02:36;45.93;;;19.87;;
20731;SDS011;10527;52.124;5.196;2022-12-10T11:05:20;47.60;;;20.73;;
20731;SDS011;10527;52.124;5.196;2022-12-10T11:08:01;54.47;;;21.30;;
20731;SDS011;10527;52.124;5.196;2022-12-10T11:10:33;43.43;;;20.43;;
20731;SDS011;10527;52.124;5.196;2022-12-10T11:13:04;49.53;;;21.13;;
20731;SDS011;10527;52.124;5.196;2022-12-10T11:18:57;41.77;;;18.30;;
20731;SDS011;10527;52.124;5.196;2022-12-10T11:21:31;47.30;;;19.30;;
20731;SDS011;10527;52.124;5.196;2022-12-10T11:24:02;47.03;;;18.87;;
20731;SDS011;10527;52.124;5.196;2022-12-10T11:32:23;40.63;;;17.30;;
20731;SDS011;10527;52.124;5.196;2022-12-10T11:38:06;47.33;;;20.23;;
20731;SDS011;10527;52.124;5.196;2022-12-10T11:41:03;47.80;;;20.03;;
20731;SDS011;10527;52.124;5.196;2022-12-10T11:50:10;42.73;;;19.43;;
20731;SDS011;10527;52.124;5.196;2022-12-10T11:56:11;50.47;;;19.50;;
20731;SDS011;10527;52.124;5.196;2022-12-10T11:59:14;39.20;;;17.90;;
20731;SDS011;10527;52.124;5.196;2022-12-10T12:13:56;38.93;;;18.00;;
20731;SDS011;10527;52.124;5.196;2022-12-10T12:17:00;46.40;;;19.20;;
20731;SDS011;10527;52.124;5.196;2022-12-10T12:19:54;39.17;;;17.87;;
20731;SDS011;10527;52.124;5.196;2022-12-10T12:22:44;45.53;;;19.23;;
20731;SDS011;10527;52.124;5.196;2022-12-10T12:25:22;42.43;;;18.37;;
20731;SDS011;10527;52.124;5.196;2022-12-10T12:28:20;40.60;;;17.77;;
20731;SDS011;10527;52.124;5.196;2022-12-10T12:31:06;40.87;;;18.27;;
20731;SDS011;10527;52.124;5.196;2022-12-10T12:33:50;37.40;;;17.70;;
20731;SDS011;10527;52.124;5.196;2022-12-10T12:36:26;39.27;;;18.60;;
20731;SDS011;10527;52.124;5.196;2022-12-10T12:38:59;42.70;;;18.90;;
20731;SDS011;10527;52.124;5.196;2022-12-10T12:49:50;42.97;;;19.07;;
20731;SDS011;10527;52.124;5.196;2022-12-10T12:58:26;38.67;;;18.03;;
20731;SDS011;10527;52.124;5.196;2022-12-10T13:01:22;52.40;;;20.97;;
20731;SDS011;10527;52.124;5.196;2022-12-10T13:04:10;43.80;;;19.73;;
20731;SDS011;10527;52.124;5.196;2022-12-10T13:06:38;53.35;;;25.00;;
20731;SDS011;10527;52.124;5.196;2022-12-10T13:11:40;44.33;;;19.43;;
20731;SDS011;10527;52.124;5.196;2022-12-10T13:15:02;45.47;;;20.30;;
20731;SDS011;10527;52.124;5.196;2022-12-10T13:17:38;41.07;;;17.37;;
20731;SDS011;10527;52.124;5.196;2022-12-10T13:23:00;32.83;;;16.37;;
20731;SDS011;10527;52.124;5.196;2022-12-10T13:34:22;39.70;;;17.03;;
20731;SDS011;10527;52.124;5.196;2022-12-10T13:37:04;38.60;;;17.40;;
20731;SDS011;10527;52.124;5.196;2022-12-10T13:42:28;34.67;;;15.87;;
20731;SDS011;10527;52.124;5.196;2022-12-10T13:45:33;40.40;;;17.37;;
20731;SDS011;10527;52.124;5.196;2022-12-10T13:57:12;37.27;;;17.00;;
20731;SDS011;10527;52.124;5.196;2022-12-10T14:00:02;43.80;;;18.37;;
20731;SDS011;10527;52.124;5.196;2022-12-10T14:02:43;54.93;;;17.33;;
20731;SDS011;10527;52.124;5.196;2022-12-10T14:05:50;34.10;;;16.13;;
20731;SDS011;10527;52.124;5.196;2022-12-10T14:08:27;33.93;;;15.03;;
20731;SDS011;10527;52.124;5.196;2022-12-10T14:10:59;31.93;;;14.30;;
20731;SDS011;10527;52.124;5.196;2022-12-10T14:13:33;36.03;;;16.67;;
20731;SDS011;10527;52.124;5.196;2022-12-10T14:16:10;39.40;;;16.10;;
20731;SDS011;10527;52.124;5.196;2022-12-10T14:18:42;35.50;;;16.23;;
20731;SDS011;10527;52.124;5.196;2022-12-10T14:21:19;44.33;;;16.83;;
20731;SDS011;10527;52.124;5.196;2022-12-10T14:23:47;39.07;;;17.70;;
20731;SDS011;10527;52.124;5.196;2022-12-10T14:26:43;47.27;;;18.07;;
20731;SDS011;10527;52.124;5.196;2022-12-10T14:29:16;36.43;;;17.17;;
20731;SDS011;10527;52.124;5.196;2022-12-10T14:31:54;51.47;;;20.77;;
20731;SDS011;10527;52.124;5.196;2022-12-10T14:34:23;46.23;;;16.00;;
20731;SDS011;10527;52.124;5.196;2022-12-10T14:36:55;39.93;;;16.77;;
20731;SDS011;10527;52.124;5.196;2022-12-10T14:39:28;39.87;;;15.53;;
20731;SDS011;10527;52.124;5.196;2022-12-10T14:42:01;40.13;;;18.30;;
20731;SDS011;10527;52.124;5.196;2022-12-10T14:44:34;41.33;;;17.57;;
20731;SDS011;10527;52.124;5.196;2022-12-10T14:47:14;43.57;;;17.20;;
20731;SDS011;10527;52.124;5.196;2022-12-10T14:49:44;41.77;;;18.13;;
20731;SDS011;10527;52.124;5.196;2022-12-10T14:52:20;43.77;;;18.00;;
20731;SDS011;10527;52.124;5.196;2022-12-10T14:54:50;39.97;;;17.00;;
20731;SDS011;10527;52.124;5.196;2022-12-10T14:57:22;48.30;;;19.20;;
20731;SDS011;10527;52.124;5.196;2022-12-10T15:00:23;41.50;;;17.53;;
20731;SDS011;10527;52.124;5.196;2022-12-10T15:02:53;45.77;;;17.13;;
20731;SDS011;10527;52.124;5.196;2022-12-10T15:05:29;51.20;;;20.47;;
20731;SDS011;10527;52.124;5.196;2022-12-10T15:08:00;52.70;;;19.60;;
20731;SDS011;10527;52.124;5.196;2022-12-10T15:10:45;45.10;;;19.03;;
20731;SDS011;10527;52.124;5.196;2022-12-10T15:13:19;47.13;;;20.87;;
20731;SDS011;10527;52.124;5.196;2022-12-10T15:15:59;54.33;;;20.27;;
20731;SDS011;10527;52.124;5.196;2022-12-10T15:18:31;48.77;;;20.20;;
20731;SDS011;10527;52.124;5.196;2022-12-10T15:21:18;61.40;;;22.20;;
20731;SDS011;10527;52.124;5.196;2022-12-10T15:23:49;127.77;;;54.53;;
20731;SDS011;10527;52.124;5.196;2022-12-10T15:26:33;81.83;;;31.30;;
20731;SDS011;10527;52.124;5.196;2022-12-10T15:31:58;55.53;;;23.23;;
20731;SDS011;10527;52.124;5.196;2022-12-10T15:34:42;49.27;;;21.73;;
20731;SDS011;10527;52.124;5.196;2022-12-10T15:37:17;55.53;;;21.57;;
20731;SDS011;10527;52.124;5.196;2022-12-10T15:39:54;53.65;;;20.48;;
20731;SDS011;10527;52.124;5.196;2022-12-10T15:45:10;53.37;;;22.50;;
20731;SDS011;10527;52.124;5.196;2022-12-10T15:48:03;48.37;;;20.63;;
20731;SDS011;10527;52.124;5.196;2022-12-10T15:50:39;50.53;;;20.83;;
20731;SDS011;10527;52.124;5.196;2022-12-10T15:53:10;51.80;;;20.27;;
20731;SDS011;10527;52.124;5.196;2022-12-10T15:55:45;49.93;;;20.10;;
20731;SDS011;10527;52.124;5.196;2022-12-10T15:58:14;47.93;;;20.57;;
20731;SDS011;10527;52.124;5.196;2022-12-10T16:00:41;57.53;;;21.60;;
20731;SDS011;10527;52.124;5.196;2022-12-10T16:03:14;58.07;;;19.77;;
20731;SDS011;10527;52.124;5.196;2022-12-10T16:05:46;51.60;;;19.03;;
20731;SDS011;10527;52.124;5.196;2022-12-10T16:08:24;52.03;;;19.73;;
20731;SDS011;10527;52.124;5.196;2022-12-10T16:11:01;66.13;;;28.25;;
20731;SDS011;10527;52.124;5.196;2022-12-10T16:13:41;55.00;;;22.33;;
20731;SDS011;10527;52.124;5.196;2022-12-10T16:16:18;54.37;;;23.83;;
20731;SDS011;10527;52.124;5.196;2022-12-10T16:18:45;53.17;;;20.93;;
20731;SDS011;10527;52.124;5.196;2022-12-10T16:21:13;50.90;;;19.93;;
20731;SDS011;10527;52.124;5.196;2022-12-10T16:23:39;54.50;;;19.87;;
20731;SDS011;10527;52.124;5.196;2022-12-10T16:26:13;52.67;;;21.20;;
20731;SDS011;10527;52.124;5.196;2022-12-10T16:28:44;53.27;;;20.53;;
20731;SDS011;10527;52.124;5.196;2022-12-10T16:31:17;48.60;;;19.77;;
20731;SDS011;10527;52.124;5.196;2022-12-10T16:33:47;51.47;;;19.63;;
20731;SDS011;10527;52.124;5.196;2022-12-10T16:36:18;47.37;;;20.40;;
20731;SDS011;10527;52.124;5.196;2022-12-10T16:38:47;45.60;;;20.10;;
20731;SDS011;10527;52.124;5.196;2022-12-10T16:41:19;45.73;;;19.13;;
20731;SDS011;10527;52.124;5.196;2022-12-10T16:43:50;55.83;;;22.47;;
20731;SDS011;10527;52.124;5.196;2022-12-10T16:46:17;50.97;;;20.33;;
20731;SDS011;10527;52.124;5.196;2022-12-10T16:48:44;48.13;;;18.80;;